Time;durP1;ratioP1;P1;durP2;ratioP2;P2;SDS_P1;SDS_P2;PMS_P1;PMS_P2;Temp;Humidity;BMP_temperature;BMP_pressure;BME280_temperature;BME280_humidity;BME280_pressure;Samples;Min_cycle;Max_cycle;Signal;HPM_P1;HPM_P2
2024/02/13 00:03:30;;;;;;;2.57;2.03;;;10.00;40.40;;;;;;10526922;28;20224;-68
2024/02/13 00:08:34;;;;;;;3.77;2.40;;;10.00;40.50;;;;;;10529462;28;20228;-70
2024/02/13 00:13:48;;;;;;;4.57;2.00;;;10.00;40.40;;;;;;10522822;28;20219;-67
2024/02/13 00:18:52;;;;;;;3.20;2.17;;;9.90;41.40;;;;;;10532874;28;20660;-67
2024/02/13 00:23:56;;;;;;;2.47;2.27;;;9.90;41.50;;;;;;10526547;28;20228;-69
2024/02/13 00:29:02;;;;;;;3.70;2.30;;;9.80;41.50;;;;;;10538150;28;20227;-68
2024/02/13 00:34:07;;;;;;;3.67;2.17;;;9.80;41.60;;;;;;10529222;28;20765;-68
2024/02/13 00:39:10;;;;;;;4.60;2.07;;;9.70;41.80;;;;;;10531728;28;20216;-70
2024/02/13 00:44:14;;;;;;;4.53;1.90;;;9.70;41.60;;;;;;10526975;28;20226;-70
2024/02/13 00:49:20;;;;;;;2.27;1.90;;;9.70;41.70;;;;;;10529233;28;20599;-69
2024/02/13 00:54:24;;;;;;;2.63;1.80;;;9.70;42.40;;;;;;10529267;28;20239;-69
2024/02/13 00:59:29;;;;;;;2.90;2.17;;;9.70;41.70;;;;;;10531783;28;20730;-70
2024/02/13 01:04:34;;;;;;;4.10;2.13;;;9.80;41.70;;;;;;10528638;28;20231;-68
2024/02/13 01:09:37;;;;;;;3.67;2.13;;;9.80;41.60;;;;;;10529927;28;20577;-68
2024/02/13 01:14:40;;;;;;;3.63;2.07;;;9.80;41.50;;;;;;10527174;28;20219;-68
2024/02/13 01:19:47;;;;;;;3.13;2.30;;;9.80;41.30;;;;;;10530328;28;20763;-68
2024/02/13 01:24:50;;;;;;;3.67;2.50;;;9.90;41.30;;;;;;10532822;28;20737;-67
2024/02/13 01:29:54;;;;;;;2.67;2.07;;;9.80;41.20;;;;;;10525476;28;20757;-70
2024/02/13 01:34:59;;;;;;;2.30;2.10;;;9.80;41.50;;;;;;10527992;28;20234;-70
2024/02/13 01:40:05;;;;;;;4.97;2.43;;;9.70;41.50;;;;;;10536363;28;20884;-70
2024/02/13 01:45:12;;;;;;;3.23;2.27;;;9.60;41.50;;;;;;10541259;28;20805;-70
2024/02/13 01:50:20;;;;;;;2.83;2.10;;;9.70;41.60;;;;;;10539882;28;20230;-69
2024/02/13 01:55:25;;;;;;;2.70;2.10;;;9.70;41.60;;;;;;10535338;28;20235;-70
2024/02/13 02:00:29;;;;;;;2.73;2.10;;;9.60;41.60;;;;;;10532485;28;20228;-69
2024/02/13 02:05:33;;;;;;;2.10;1.90;;;9.50;41.50;;;;;;10536931;28;20330;-69
2024/02/13 02:10:38;;;;;;;3.03;1.90;;;9.50;41.80;;;;;;10532884;28;20709;-69
2024/02/13 02:15:42;;;;;;;4.70;1.97;;;9.50;41.80;;;;;;10535115;28;20223;-69
2024/02/13 02:20:46;;;;;;;3.40;2.13;;;9.40;41.80;;;;;;10534410;28;20226;-69
2024/02/13 02:25:51;;;;;;;2.07;1.80;;;9.40;41.90;;;;;;10528892;28;20223;-69
2024/02/13 02:30:55;;;;;;;3.23;1.93;;;9.40;42.00;;;;;;10536821;27;20222;-69
2024/02/13 02:35:58;;;;;;;4.97;2.37;;;9.40;42.00;;;;;;10530628;28;20224;-67
2024/02/13 02:41:03;;;;;;;5.77;2.00;;;9.50;42.10;;;;;;10533446;28;20714;-67
2024/02/13 02:46:06;;;;;;;3.77;1.90;;;9.50;41.90;;;;;;10533241;28;20306;-67
2024/02/13 02:51:09;;;;;;;3.43;1.77;;;9.60;42.00;;;;;;10522554;28;20220;-68
2024/02/13 02:56:15;;;;;;;3.90;2.20;;;9.60;41.90;;;;;;10528943;28;20327;-68
2024/02/13 03:01:19;;;;;;;2.87;1.93;;;9.60;42.00;;;;;;10528811;28;20234;-68
2024/02/13 03:06:22;;;;;;;2.83;2.00;;;9.60;41.90;;;;;;10536530;28;20228;-67
2024/02/13 03:11:27;;;;;;;2.87;1.90;;;9.70;41.80;;;;;;10534660;28;20648;-67
2024/02/13 03:16:34;;;;;;;2.97;2.13;;;9.70;41.90;;;;;;10534759;27;20231;-68
2024/02/13 03:21:37;;;;;;;5.07;2.33;;;9.70;41.70;;;;;;10528266;28;20302;-68
2024/02/13 03:26:42;;;;;;;3.43;2.07;;;9.70;41.50;;;;;;10534151;28;20243;-68
2024/02/13 03:31:45;;;;;;;3.10;1.90;;;9.70;41.60;;;;;;10535050;28;20280;-68
2024/02/13 03:36:49;;;;;;;3.43;2.27;;;9.80;41.80;;;;;;10533946;28;21184;-68
2024/02/13 03:41:53;;;;;;;4.03;2.40;;;9.70;41.70;;;;;;10530872;28;20215;-68
2024/02/13 03:46:57;;;;;;;4.77;2.80;;;9.70;41.70;;;;;;10532517;28;20220;-67
2024/02/13 03:52:00;;;;;;;3.43;2.30;;;9.70;41.70;;;;;;10528397;28;20245;-68
2024/02/13 03:57:06;;;;;;;4.57;2.10;;;9.60;41.80;;;;;;10530948;28;20231;-71
2024/02/13 04:02:09;;;;;;;4.40;2.40;;;9.60;41.90;;;;;;10530400;28;20308;-72
2024/02/13 04:07:12;;;;;;;3.70;2.10;;;9.60;41.90;;;;;;10528613;28;20684;-71
2024/02/13 04:12:17;;;;;;;5.33;2.33;;;9.60;42.00;;;;;;10533542;28;20223;-72
2024/02/13 04:17:20;;;;;;;3.47;1.90;;;9.60;42.80;;;;;;10527972;28;20235;-72
2024/02/13 04:22:25;;;;;;;2.63;1.60;;;9.50;41.90;;;;;;10532128;28;20312;-71
2024/02/13 04:27:29;;;;;;;2.13;1.40;;;9.50;41.80;;;;;;10533775;27;20706;-72
2024/02/13 04:32:33;;;;;;;1.90;1.20;;;9.50;41.90;;;;;;10527579;28;20318;-71
2024/02/13 04:37:37;;;;;;;3.77;1.50;;;9.60;41.70;;;;;;10526997;28;20729;-71
2024/02/13 04:42:42;;;;;;;1.57;1.20;;;9.60;41.80;;;;;;10532655;28;20736;-72
2024/02/13 04:47:46;;;;;;;1.57;1.23;;;9.60;41.80;;;;;;10539810;28;20580;-74
2024/02/13 04:52:50;;;;;;;2.53;1.30;;;9.60;41.70;;;;;;10530243;28;20660;-72
2024/02/13 04:57:57;;;;;;;2.33;1.40;;;9.60;41.80;;;;;;10524433;28;20238;-71
2024/02/13 05:03:03;;;;;;;2.37;1.53;;;9.60;41.90;;;;;;10524198;28;20658;-71
2024/02/13 05:08:07;;;;;;;4.43;2.00;;;9.60;41.80;;;;;;10523930;28;20219;-70
2024/02/13 05:13:14;;;;;;;3.57;1.90;;;9.60;41.90;;;;;;10537636;28;20219;-70
2024/02/13 05:18:18;;;;;;;3.60;2.10;;;9.60;42.00;;;;;;10530870;28;20223;-70
2024/02/13 05:23:21;;;;;;;5.67;1.90;;;9.60;42.00;;;;;;10535493;28;20230;-70
2024/02/13 05:28:26;;;;;;;4.70;1.90;;;9.50;42.00;;;;;;10534155;27;20243;-70
2024/02/13 05:33:29;;;;;;;3.80;1.97;;;9.60;42.10;;;;;;10537900;28;20322;-70
2024/02/13 05:38:37;;;;;;;4.90;2.20;;;9.60;42.00;;;;;;10533241;28;20226;-70
2024/02/13 05:43:43;;;;;;;3.63;2.10;;;9.60;42.00;;;;;;10531830;27;20226;-70
2024/02/13 05:48:48;;;;;;;3.23;2.50;;;9.60;41.90;;;;;;10534345;28;20727;-70
2024/02/13 05:53:51;;;;;;;3.50;2.20;;;9.70;41.70;;;;;;10532129;28;20230;-69
2024/02/13 05:58:57;;;;;;;4.33;3.10;;;9.60;41.50;;;;;;10531892;28;20246;-71
2024/02/13 06:04:05;;;;;;;7.00;5.00;;;9.60;41.50;;;;;;10530528;28;20227;-72
2024/02/13 06:09:09;;;;;;;5.60;4.40;;;9.50;41.40;;;;;;10533338;28;20888;-71
2024/02/13 06:14:14;;;;;;;7.43;5.40;;;9.40;41.40;;;;;;10535041;28;20223;-71
2024/02/13 06:19:17;;;;;;;5.57;4.63;;;9.40;41.50;;;;;;10534847;27;20712;-72
2024/02/13 06:24:20;;;;;;;4.90;4.50;;;9.30;41.60;;;;;;10529821;27;20705;-70
2024/02/13 06:29:25;;;;;;;5.20;3.60;;;9.30;41.60;;;;;;10531100;28;20739;-69
2024/02/13 06:34:28;;;;;;;4.83;2.67;;;9.30;41.70;;;;;;10534657;27;20227;-69
2024/02/13 06:39:31;;;;;;;3.20;2.30;;;9.40;41.70;;;;;;10533588;28;20701;-69
2024/02/13 06:44:37;;;;;;;7.07;2.70;;;9.30;41.50;;;;;;10535317;28;20281;-69
2024/02/13 06:49:41;;;;;;;3.60;3.03;;;9.30;41.50;;;;;;10531724;28;20718;-69
2024/02/13 06:54:45;;;;;;;5.37;3.60;;;9.30;41.50;;;;;;10533624;28;20291;-71
2024/02/13 06:59:54;;;;;;;5.17;3.63;;;9.30;41.80;;;;;;10531105;27;20862;-71
2024/02/13 07:04:57;;;;;;;8.33;3.73;;;9.20;41.70;;;;;;10534791;28;20550;-71
2024/02/13 07:10:01;;;;;;;5.93;4.17;;;9.10;41.50;;;;;;10534665;28;20226;-71
2024/02/13 07:15:07;;;;;;;6.77;3.70;;;9.10;41.70;;;;;;10531184;28;20631;-71
2024/02/13 07:20:11;;;;;;;5.60;3.30;;;9.00;42.60;;;;;;10523221;27;20223;-74
2024/02/13 07:25:15;;;;;;;4.17;2.73;;;9.00;41.80;;;;;;10528694;28;20231;-72
2024/02/13 07:30:20;;;;;;;4.23;3.10;;;9.00;41.70;;;;;;10527694;28;20272;-72
2024/02/13 07:35:23;;;;;;;3.10;2.63;;;9.00;41.70;;;;;;10533129;28;20237;-72
2024/02/13 07:40:26;;;;;;;3.37;2.50;;;9.00;42.00;;;;;;10535935;28;20592;-72
2024/02/13 07:45:31;;;;;;;6.60;3.83;;;9.10;41.90;;;;;;10525854;28;20311;-72
2024/02/13 07:50:35;;;;;;;11.27;7.17;;;9.10;41.80;;;;;;10526725;28;20764;-72
2024/02/13 07:55:38;;;;;;;4.47;2.83;;;9.10;41.70;;;;;;10530850;28;20231;-72
2024/02/13 08:00:43;;;;;;;3.33;2.30;;;9.20;41.80;;;;;;10527860;28;20632;-72
2024/02/13 08:05:47;;;;;;;5.17;2.40;;;9.10;41.70;;;;;;10532553;27;20235;-72
2024/02/13 08:10:50;;;;;;;3.53;2.27;;;9.20;41.80;;;;;;10528523;27;20233;-72
2024/02/13 08:15:55;;;;;;;6.17;2.40;;;9.30;42.20;;;;;;10532063;28;20253;-72
2024/02/13 08:20:58;;;;;;;5.00;2.50;;;9.40;42.30;;;;;;10530207;28;20227;-72
2024/02/13 08:26:02;;;;;;;4.90;2.50;;;9.50;42.40;;;;;;10527085;28;20220;-74
2024/02/13 08:31:06;;;;;;;6.40;2.60;;;9.60;42.60;;;;;;10526941;28;20238;-67
2024/02/13 08:36:11;;;;;;;4.63;2.43;;;9.80;42.60;;;;;;10526856;28;20223;-68
2024/02/13 08:41:15;;;;;;;5.83;2.70;;;9.90;42.60;;;;;;10531350;28;20597;-67
2024/02/13 08:46:22;;;;;;;4.80;2.43;;;10.00;41.70;;;;;;10527446;28;20247;-67
2024/02/13 08:51:26;;;;;;;5.90;2.60;;;10.20;41.60;;;;;;10528321;28;20239;-67
2024/02/13 08:56:30;;;;;;;6.50;2.47;;;10.30;41.70;;;;;;10526945;28;20293;-66
2024/02/13 09:01:35;;;;;;;5.03;2.37;;;10.50;41.70;;;;;;10523839;28;20243;-66
2024/02/13 09:06:38;;;;;;;6.63;2.67;;;10.70;41.00;;;;;;10522375;28;20265;-66
2024/02/13 09:11:42;;;;;;;5.03;2.50;;;10.80;41.00;;;;;;10524109;28;20223;-72
2024/02/13 09:16:47;;;;;;;3.27;2.20;;;10.90;41.00;;;;;;10521242;28;20255;-71
2024/02/13 09:21:50;;;;;;;6.60;3.00;;;11.00;41.10;;;;;;10526230;28;20219;-72
2024/02/13 09:26:53;;;;;;;4.63;2.37;;;11.10;40.90;;;;;;10519272;28;20231;-71
2024/02/13 09:31:58;;;;;;;6.43;2.80;;;11.20;41.00;;;;;;10531755;28;20225;-72
2024/02/13 09:37:01;;;;;;;6.43;2.10;;;11.40;41.90;;;;;;10527103;28;20756;-71
2024/02/13 09:42:07;;;;;;;2.90;2.03;;;11.50;41.30;;;;;;10520048;28;20707;-71
2024/02/13 09:47:12;;;;;;;5.13;2.00;;;11.70;40.60;;;;;;10522760;28;20743;-72
2024/02/13 09:52:17;;;;;;;4.90;2.40;;;11.80;39.90;;;;;;10519607;28;20220;-72
2024/02/13 09:57:21;;;;;;;3.07;2.07;;;11.90;40.00;;;;;;10530719;27;20231;-72
2024/02/13 10:02:28;;;;;;;6.20;2.10;;;12.00;40.20;;;;;;10521125;28;20302;-72
2024/02/13 10:07:34;;;;;;;2.43;1.70;;;12.10;40.00;;;;;;10531522;28;20231;-71
2024/02/13 10:12:53;;;;;;;2.17;1.60;;;12.20;39.90;;;;;;10530221;28;20219;-72
2024/02/13 10:17:57;;;;;;;7.30;2.20;;;12.20;39.00;;;;;;10533308;28;20904;-72
2024/02/13 10:23:01;;;;;;;4.00;2.00;;;12.30;40.00;;;;;;10537422;28;20583;-71
2024/02/13 10:28:06;;;;;;;4.27;1.70;;;12.40;40.00;;;;;;10541007;27;20220;-67
2024/02/13 10:33:11;;;;;;;5.73;2.03;;;12.50;39.50;;;;;;10539829;28;20268;-72
2024/02/13 10:38:21;;;;;;;3.10;1.83;;;12.50;38.90;;;;;;10526649;28;20260;-72
2024/02/13 10:43:27;;;;;;;3.77;1.53;;;12.40;39.00;;;;;;10526680;28;20227;-70
2024/02/13 10:48:40;;;;;;;4.37;1.50;;;12.30;39.00;;;;;;10535127;28;20230;-70
2024/02/13 10:53:44;;;;;;;4.43;1.57;;;12.20;38.40;;;;;;10533625;27;20238;-70
2024/02/13 10:58:47;;;;;;;4.17;1.20;;;12.30;39.70;;;;;;10535240;28;20215;-70
2024/02/13 11:03:55;;;;;;;4.90;1.87;;;12.40;39.00;;;;;;10534585;28;20247;-70
2024/02/13 11:08:58;;;;;;;2.57;1.20;;;12.50;38.50;;;;;;10535336;28;20269;-70
2024/02/13 11:14:02;;;;;;;3.97;1.30;;;12.60;39.40;;;;;;10536814;27;20215;-70
2024/02/13 11:19:12;;;;;;;2.80;1.07;;;12.70;38.70;;;;;;10534975;28;20231;-70
2024/02/13 11:24:21;;;;;;;2.93;1.20;;;12.70;37.40;;;;;;10535200;28;20229;-70
2024/02/13 11:29:29;;;;;;;2.80;1.40;;;12.80;37.00;;;;;;10532690;28;20791;-70
2024/02/13 11:34:43;;;;;;;3.23;1.30;;;12.80;37.30;;;;;;10535040;28;20318;-70
2024/02/13 11:39:48;;;;;;;3.27;1.47;;;12.90;36.90;;;;;;10536768;27;20284;-72
2024/02/13 11:44:51;;;;;;;3.03;1.30;;;12.80;37.40;;;;;;10533050;28;20227;-70
2024/02/13 11:49:56;;;;;;;3.80;1.17;;;12.80;37.30;;;;;;10529619;27;20730;-67
2024/02/13 11:55:01;;;;;;;2.97;1.43;;;12.80;37.10;;;;;;10532692;28;20226;-67
2024/02/13 12:00:12;;;;;;;3.13;1.20;;;12.70;37.20;;;;;;10532630;28;20227;-71
2024/02/13 12:05:19;;;;;;;4.67;1.37;;;12.80;37.30;;;;;;10540633;28;20227;-71
2024/02/13 12:10:23;;;;;;;1.60;1.10;;;12.80;37.10;;;;;;10528653;28;20238;-71
2024/02/13 12:15:27;;;;;;;3.17;1.60;;;12.90;37.30;;;;;;10527370;28;20230;-71
2024/02/13 12:20:33;;;;;;;3.73;1.40;;;12.80;37.00;;;;;;10524778;27;20322;-71
2024/02/13 12:25:36;;;;;;;1.80;1.07;;;12.80;36.60;;;;;;10522881;28;20270;-71
2024/02/13 12:30:40;;;;;;;4.37;1.53;;;12.80;37.00;;;;;;10518196;28;20604;-71
2024/02/13 12:35:46;;;;;;;3.10;1.50;;;12.90;36.70;;;;;;10521212;28;20234;-71
2024/02/13 12:40:49;;;;;;;3.17;1.40;;;12.90;36.20;;;;;;10528650;28;20232;-71
2024/02/13 12:45:55;;;;;;;1.50;1.20;;;12.90;36.50;;;;;;10524598;28;20272;-71
2024/02/13 12:51:02;;;;;;;1.33;0.80;;;13.00;36.80;;;;;;10529189;28;20786;-71
2024/02/13 12:56:08;;;;;;;3.90;1.23;;;13.10;35.50;;;;;;10525432;28;20225;-71
2024/02/13 13:01:15;;;;;;;2.30;1.00;;;13.20;36.40;;;;;;10525539;28;20284;-71
2024/02/13 13:06:19;;;;;;;1.03;0.87;;;13.30;35.90;;;;;;10522896;28;20242;-70
2024/02/13 13:11:23;;;;;;;2.60;0.90;;;13.30;34.70;;;;;;10529589;28;20230;-69
2024/02/13 13:16:28;;;;;;;1.53;0.70;;;13.30;35.20;;;;;;10535084;28;20237;-69
2024/02/13 13:21:34;;;;;;;1.83;1.13;;;13.40;35.00;;;;;;10531105;28;20227;-69
2024/02/13 13:26:41;;;;;;;1.73;0.90;;;13.40;34.30;;;;;;10520755;27;20729;-69
2024/02/13 13:31:47;;;;;;;1.93;0.80;;;13.50;34.80;;;;;;10530594;28;20285;-69
2024/02/13 13:36:53;;;;;;;1.60;0.90;;;13.50;35.00;;;;;;10536796;28;20237;-69
2024/02/13 13:41:59;;;;;;;1.17;0.87;;;13.50;34.50;;;;;;10537458;28;20583;-69
2024/02/13 13:47:02;;;;;;;1.00;0.90;;;13.60;34.90;;;;;;10535307;28;20714;-69
2024/02/13 13:52:07;;;;;;;3.60;1.00;;;13.80;35.00;;;;;;10537170;27;20307;-69
2024/02/13 13:57:11;;;;;;;0.93;0.83;;;13.90;33.90;;;;;;10535241;28;20228;-69
2024/02/13 14:02:14;;;;;;;1.07;0.90;;;14.00;34.00;;;;;;10536481;28;20317;-69
2024/02/13 14:07:19;;;;;;;2.33;1.00;;;14.00;33.80;;;;;;10537595;28;20230;-69
2024/02/13 14:12:23;;;;;;;3.00;1.00;;;14.00;33.20;;;;;;10537314;28;20230;-69
2024/02/13 14:17:26;;;;;;;1.63;0.83;;;14.00;33.60;;;;;;10538919;28;20242;-69
2024/02/13 14:22:32;;;;;;;1.90;0.97;;;13.90;33.60;;;;;;10531805;28;20239;-69
2024/02/13 14:27:35;;;;;;;2.80;1.00;;;13.90;33.20;;;;;;10540976;27;20255;-69
2024/02/13 14:32:39;;;;;;;0.90;0.80;;;13.80;33.50;;;;;;10534570;28;20647;-69
2024/02/13 14:37:43;;;;;;;3.33;1.07;;;13.70;33.40;;;;;;10534497;28;20236;-69
2024/02/13 14:42:46;;;;;;;1.67;0.90;;;13.80;33.00;;;;;;10538369;28;20227;-69
2024/02/13 14:47:51;;;;;;;1.77;0.97;;;13.80;33.40;;;;;;10527994;28;20230;-69
2024/02/13 14:52:56;;;;;;;2.07;0.90;;;13.80;33.20;;;;;;10536573;28;20236;-71
2024/02/13 14:57:59;;;;;;;1.77;1.03;;;13.80;32.70;;;;;;10530637;28;20246;-71
2024/02/13 15:03:21;;;;;;;1.33;1.00;;;13.80;33.00;;;;;;10534197;28;20853;-71
2024/02/13 15:08:25;;;;;;;2.83;1.20;;;13.70;33.20;;;;;;10532791;28;20304;-71
2024/02/13 15:13:29;;;;;;;2.53;1.33;;;13.70;32.60;;;;;;10531933;28;20239;-71
2024/02/13 15:18:32;;;;;;;2.97;0.90;;;13.70;33.10;;;;;;10529108;28;20914;-71
2024/02/13 15:23:37;;;;;;;1.20;0.87;;;13.70;33.30;;;;;;10532865;28;20276;-71
2024/02/13 15:28:41;;;;;;;2.20;1.33;;;13.60;32.30;;;;;;10526228;27;20710;-71
2024/02/13 15:33:44;;;;;;;1.73;0.80;;;13.60;33.20;;;;;;10537312;28;20312;-71
2024/02/13 15:49:31;;;;;;;1.17;0.90;;;13.70;33.10;;;;;;10533994;28;20223;-70
2024/02/13 15:54:36;;;;;;;2.73;0.90;;;13.80;32.80;;;;;;10530361;28;20231;-70
2024/02/13 15:59:41;;;;;;;2.27;1.10;;;13.80;32.20;;;;;;10532587;28;20845;-70
2024/02/13 16:04:45;;;;;;;3.03;1.20;;;13.90;32.50;;;;;;10533268;28;20295;-70
2024/02/13 16:09:50;;;;;;;2.67;1.77;;;13.80;32.50;;;;;;10533436;28;20230;-69
2024/02/13 16:14:54;;;;;;;2.40;1.97;;;13.80;32.20;;;;;;10526943;28;20879;-69
2024/02/13 16:19:57;;;;;;;1.93;1.50;;;13.70;32.50;;;;;;10532786;28;20222;-70
2024/02/13 16:25:05;;;;;;;2.03;1.50;;;13.70;33.10;;;;;;10537439;28;20223;-69
2024/02/13 16:30:10;;;;;;;2.70;1.73;;;13.70;32.70;;;;;;10520051;27;20219;-70
2024/02/13 16:35:14;;;;;;;2.50;1.40;;;13.70;33.20;;;;;;10529728;28;20231;-72
2024/02/13 16:40:19;;;;;;;3.40;1.50;;;13.60;32.90;;;;;;10531525;28;20247;-72
2024/02/13 16:45:23;;;;;;;3.83;1.80;;;13.60;32.60;;;;;;10528209;28;20726;-71
2024/02/13 16:50:27;;;;;;;3.23;1.80;;;13.50;33.00;;;;;;10515601;28;20227;-71
2024/02/13 16:55:32;;;;;;;2.97;1.90;;;13.40;33.00;;;;;;10516333;28;20812;-72
2024/02/13 17:00:36;;;;;;;3.80;2.10;;;13.30;32.70;;;;;;10527629;28;20250;-72
2024/02/13 17:05:39;;;;;;;3.50;3.20;;;13.20;33.00;;;;;;10531402;28;20314;-71
2024/02/13 17:10:44;;;;;;;3.40;3.10;;;13.10;33.20;;;;;;10523661;28;20226;-74
2024/02/13 17:15:47;;;;;;;4.47;3.17;;;13.00;32.90;;;;;;10517872;28;20235;-75
2024/02/13 17:20:50;;;;;;;5.63;4.40;;;12.90;33.00;;;;;;10521087;28;20233;-75
2024/02/13 17:25:55;;;;;;;6.83;4.80;;;12.60;33.60;;;;;;10515137;28;20829;-75
2024/02/13 17:30:58;;;;;;;4.33;3.70;;;12.40;33.30;;;;;;10519183;28;20590;-75
2024/02/13 17:36:03;;;;;;;3.20;2.40;;;12.20;33.60;;;;;;10521041;28;20310;-70
2024/02/13 17:41:08;;;;;;;3.70;2.83;;;12.00;33.50;;;;;;10526769;28;20227;-70
2024/02/13 17:46:12;;;;;;;5.50;4.10;;;11.90;33.60;;;;;;10528146;28;20592;-70
2024/02/13 17:51:18;;;;;;;3.77;3.37;;;11.70;33.60;;;;;;10529170;28;20223;-71
2024/02/13 17:56:23;;;;;;;4.77;4.07;;;11.60;33.90;;;;;;10529322;28;20735;-67
2024/02/13 18:01:27;;;;;;;5.00;4.30;;;11.50;34.10;;;;;;10526728;28;20227;-71
2024/02/13 18:06:31;;;;;;;8.43;6.77;;;11.50;34.40;;;;;;10526072;28;20224;-71
2024/02/13 18:11:36;;;;;;;7.20;6.50;;;11.50;34.30;;;;;;10528305;28;20689;-67
2024/02/13 18:16:40;;;;;;;7.90;7.20;;;11.60;34.10;;;;;;10532186;28;20235;-68
2024/02/13 18:21:43;;;;;;;10.10;7.30;;;11.50;33.80;;;;;;10533837;28;20226;-68
2024/02/13 18:26:48;;;;;;;12.13;10.87;;;11.40;33.80;;;;;;10533683;27;20228;-68
2024/02/13 18:31:52;;;;;;;12.43;11.13;;;11.20;34.40;;;;;;10539433;28;20225;-67
2024/02/13 18:36:57;;;;;;;10.33;8.77;;;11.10;34.40;;;;;;10535158;28;20223;-68
2024/02/13 18:42:02;;;;;;;41.77;24.77;;;11.00;34.40;;;;;;10540697;27;20751;-67
2024/02/13 18:47:09;;;;;;;25.37;16.30;;;10.90;34.10;;;;;;10524790;28;20710;-75
2024/02/13 18:52:13;;;;;;;17.83;12.23;;;10.70;34.30;;;;;;10521706;28;20224;-74
2024/02/13 18:57:18;;;;;;;15.50;11.67;;;10.60;34.40;;;;;;10524894;28;20231;-75
2024/02/13 19:02:22;;;;;;;15.73;11.13;;;10.50;34.50;;;;;;10525418;28;20702;-71
2024/02/13 19:07:25;;;;;;;10.97;8.57;;;10.50;34.50;;;;;;10527440;28;20237;-74
2024/02/13 19:12:30;;;;;;;10.97;9.90;;;10.50;34.70;;;;;;10525142;28;20246;-74
2024/02/13 19:17:34;;;;;;;9.30;8.40;;;10.50;34.40;;;;;;10530791;28;20239;-75
2024/02/13 19:22:38;;;;;;;8.00;7.07;;;10.40;34.30;;;;;;10529083;28;20280;-68
2024/02/13 19:27:42;;;;;;;7.50;6.57;;;10.30;34.50;;;;;;10526178;28;20235;-67
2024/02/13 19:32:46;;;;;;;9.90;8.07;;;10.20;34.60;;;;;;10530603;28;20223;-71
2024/02/13 19:37:50;;;;;;;9.17;7.50;;;10.20;34.40;;;;;;10530141;28;20255;-67
2024/02/13 19:42:57;;;;;;;8.63;6.70;;;10.20;34.50;;;;;;10529727;28;20242;-71
2024/02/13 19:48:00;;;;;;;7.57;5.50;;;10.20;34.70;;;;;;10530488;28;20251;-71
2024/02/13 19:53:06;;;;;;;8.70;6.93;;;10.10;34.60;;;;;;10530439;28;20693;-71
2024/02/13 19:58:11;;;;;;;6.80;6.10;;;10.10;34.40;;;;;;10527127;28;20723;-71
2024/02/13 20:03:15;;;;;;;7.63;6.80;;;10.00;34.40;;;;;;10529199;28;20219;-68
2024/02/13 20:08:19;;;;;;;8.07;6.93;;;10.00;34.30;;;;;;10523388;28;21064;-75
2024/02/13 20:13:25;;;;;;;6.20;5.47;;;9.90;35.10;;;;;;10524478;28;20220;-71
2024/02/13 20:18:31;;;;;;;10.43;5.77;;;9.90;35.40;;;;;;10529807;28;20242;-71
2024/02/13 20:23:35;;;;;;;5.23;4.80;;;9.80;35.30;;;;;;10529986;28;20280;-71
2024/02/13 20:28:40;;;;;;;11.53;8.33;;;9.80;35.40;;;;;;10527574;28;20725;-71
2024/02/13 20:33:43;;;;;;;7.57;6.23;;;9.70;35.40;;;;;;10529254;28;20923;-71
2024/02/13 20:38:47;;;;;;;5.83;5.20;;;9.60;35.40;;;;;;10530649;28;20223;-71
2024/02/13 20:43:51;;;;;;;7.27;5.50;;;9.60;35.20;;;;;;10530501;28;20230;-71
2024/02/13 20:48:55;;;;;;;7.43;5.80;;;9.40;35.20;;;;;;10530496;28;20223;-71
2024/02/13 20:53:59;;;;;;;5.40;4.87;;;9.40;35.40;;;;;;10531430;28;20848;-71
2024/02/13 20:59:04;;;;;;;6.47;5.60;;;9.30;35.30;;;;;;10531755;28;20255;-71
2024/02/13 21:04:09;;;;;;;7.20;5.40;;;9.10;35.50;;;;;;10526924;28;20232;-71
2024/02/13 21:09:13;;;;;;;5.63;5.03;;;9.10;35.60;;;;;;10527592;27;20211;-71
2024/02/13 21:14:18;;;;;;;6.70;5.20;;;9.00;35.80;;;;;;10526418;28;20893;-71
2024/02/13 21:19:22;;;;;;;6.13;4.90;;;9.00;35.50;;;;;;10528659;27;20317;-71
2024/02/13 21:24:25;;;;;;;5.10;4.60;;;9.00;35.80;;;;;;10531165;28;20250;-72
2024/02/13 21:29:30;;;;;;;5.90;4.83;;;8.90;35.70;;;;;;10519354;28;20723;-72
2024/02/13 21:34:36;;;;;;;5.57;4.93;;;8.90;35.70;;;;;;10517653;28;20255;-67
2024/02/13 21:39:40;;;;;;;5.63;5.03;;;8.90;35.80;;;;;;10522496;28;20594;-67
2024/02/13 21:44:44;;;;;;;6.77;6.03;;;8.80;35.80;;;;;;10518446;28;20223;-68
2024/02/13 21:49:47;;;;;;;8.43;6.93;;;8.80;35.70;;;;;;10519365;28;20234;-67
2024/02/13 21:54:51;;;;;;;6.90;6.10;;;8.70;35.50;;;;;;10526746;28;20652;-71
2024/02/13 21:59:59;;;;;;;7.37;5.97;;;8.50;35.40;;;;;;10533252;28;20216;-71
2024/02/13 22:05:06;;;;;;;7.30;5.37;;;8.40;35.90;;;;;;10524659;28;20237;-71
2024/02/13 22:10:11;;;;;;;6.07;5.53;;;8.30;35.90;;;;;;10527518;27;20708;-71
2024/02/13 22:15:18;;;;;;;6.07;5.47;;;8.30;36.10;;;;;;10528737;28;20261;-71
2024/02/13 22:20:21;;;;;;;6.70;6.07;;;8.30;36.10;;;;;;10528924;28;20303;-67
2024/02/13 22:25:25;;;;;;;6.23;5.63;;;8.40;36.10;;;;;;10527849;28;20227;-67
2024/02/13 22:30:29;;;;;;;6.53;4.80;;;8.40;36.00;;;;;;10523806;27;20701;-73
2024/02/13 22:35:32;;;;;;;7.20;6.10;;;8.30;35.90;;;;;;10531599;27;20231;-74
2024/02/13 22:40:35;;;;;;;7.43;6.07;;;8.30;35.60;;;;;;10525135;27;20238;-74
2024/02/13 22:45:40;;;;;;;6.50;5.30;;;8.20;35.50;;;;;;10525395;27;20228;-73
2024/02/13 22:50:43;;;;;;;6.87;6.17;;;8.00;35.90;;;;;;10525019;27;20300;-67
2024/02/13 22:55:47;;;;;;;6.27;5.70;;;7.90;35.80;;;;;;10524935;28;20223;-71
2024/02/13 23:00:56;;;;;;;6.23;5.63;;;7.80;35.80;;;;;;10521226;27;20314;-73
2024/02/13 23:06:00;;;;;;;7.03;6.07;;;7.60;35.80;;;;;;10518555;28;20220;-73
2024/02/13 23:11:05;;;;;;;6.17;5.57;;;7.50;36.20;;;;;;10530620;27;20780;-71
2024/02/13 23:16:11;;;;;;;8.20;6.17;;;7.50;36.30;;;;;;10518246;28;20219;-73
2024/02/13 23:21:15;;;;;;;7.53;6.10;;;7.50;36.40;;;;;;10520721;28;20228;-71
2024/02/13 23:26:18;;;;;;;8.80;6.13;;;7.50;36.10;;;;;;10520133;27;20231;-71
2024/02/13 23:31:22;;;;;;;8.93;7.23;;;7.40;36.00;;;;;;10526678;28;20587;-71
2024/02/13 23:36:26;;;;;;;7.27;6.43;;;7.30;36.00;;;;;;10523468;28;20800;-71
2024/02/13 23:41:29;;;;;;;7.63;5.30;;;7.10;35.80;;;;;;10522559;28;20220;-74
2024/02/13 23:46:34;;;;;;;6.60;5.63;;;7.00;36.20;;;;;;10511152;28;20629;-74
2024/02/13 23:51:39;;;;;;;5.83;5.27;;;6.90;36.70;;;;;;10523081;28;20250;-70
2024/02/13 23:56:42;;;;;;;7.10;5.60;;;6.80;36.70;;;;;;10523371;28;20321;-68
